createdAt,value
2018-11-21T00:01:59.425Z,5.38
2018-11-21T00:04:28.164Z,5.39
2018-11-21T00:06:56.767Z,5.43
2018-11-21T00:09:25.380Z,5.44
2018-11-21T00:11:53.815Z,5.44
2018-11-21T00:14:22.418Z,5.42
2018-11-21T00:16:50.866Z,5.42
2018-11-21T00:19:25.094Z,5.44
2018-11-21T00:21:53.471Z,5.46
2018-11-21T00:24:21.888Z,5.46
2018-11-21T00:27:09.348Z,5.46
2018-11-21T00:30:05.031Z,5.44
2018-11-21T00:32:22.252Z,5.45
2018-11-21T00:34:51.594Z,5.46
2018-11-21T00:37:20.981Z,5.46
2018-11-21T00:39:49.713Z,5.48
2018-11-21T00:42:18.170Z,5.47
2018-11-21T00:44:46.660Z,5.47
2018-11-21T00:47:18.052Z,5.47
2018-11-21T00:49:46.460Z,5.46
2018-11-21T00:52:17.913Z,5.46
2018-11-21T00:54:46.402Z,5.45
2018-11-21T00:57:14.804Z,5.42
2018-11-21T00:59:43.722Z,5.38
2018-11-21T01:02:12.140Z,5.38
2018-11-21T01:04:46.103Z,5.36
2018-11-21T01:07:24.701Z,5.34
2018-11-21T01:09:59.142Z,5.31
2018-11-21T01:12:27.526Z,5.26
2018-11-21T01:14:58.782Z,5.22
2018-11-21T01:17:27.196Z,5.21
2018-11-21T01:20:01.712Z,5.18
2018-11-21T01:22:30.137Z,5.17
2018-11-21T01:25:04.136Z,5.15
2018-11-21T01:27:32.541Z,5.13
2018-11-21T01:30:01.004Z,5.16
2018-11-21T01:32:29.674Z,5.15
2018-11-21T01:34:58.081Z,5.15
2018-11-21T01:37:26.450Z,5.14
2018-11-21T01:40:00.942Z,5.15
2018-11-21T01:42:29.360Z,5.14
2018-11-21T01:44:57.753Z,5.12
2018-11-21T01:47:26.609Z,5.10
2018-11-21T01:49:55.247Z,5.10
2018-11-21T01:52:26.794Z,5.09
2018-11-21T01:54:55.202Z,5.09
2018-11-21T01:57:38.881Z,5.08
2018-11-21T02:00:09.307Z,5.05
2018-11-21T02:02:37.838Z,4.99
2018-11-21T02:05:06.825Z,4.97
2018-11-21T02:07:35.420Z,4.99
2018-11-21T02:10:03.877Z,5.01
2018-11-21T02:12:38.157Z,5.04
2018-11-21T02:15:06.870Z,5.04
2018-11-21T02:17:35.343Z,5.04
2018-11-21T02:20:03.773Z,5.05
2018-11-21T02:22:35.106Z,5.07
2018-11-21T02:25:03.713Z,5.09
2018-11-21T02:27:35.308Z,5.12
2018-11-21T02:30:03.903Z,5.13
2018-11-21T02:32:32.293Z,5.16
2018-11-21T02:35:00.856Z,5.17
2018-11-21T02:37:29.236Z,5.16
2018-11-21T02:40:15.991Z,5.15
2018-11-21T02:42:44.382Z,5.15
2018-11-21T02:45:12.796Z,5.14
2018-11-21T02:47:41.217Z,5.11
2018-11-21T02:50:09.781Z,5.09
2018-11-21T02:52:41.419Z,5.08
2018-11-21T02:55:09.851Z,5.09
2018-11-21T02:57:47.327Z,5.10
2018-11-21T03:00:18.276Z,5.11
2018-11-21T03:02:46.816Z,5.09
2018-11-21T03:05:15.316Z,5.09
2018-11-21T03:07:53.963Z,5.10
2018-11-21T03:10:30.739Z,5.11
2018-11-21T03:12:59.155Z,5.11
2018-11-21T03:15:33.640Z,5.14
2018-11-21T03:18:04.974Z,5.15
2018-11-21T03:20:33.402Z,5.15
2018-11-21T03:23:01.846Z,5.13
2018-11-21T03:25:30.243Z,5.11
2018-11-21T03:28:16.808Z,5.12
2018-11-21T03:30:45.526Z,5.12
2018-11-21T03:33:20.168Z,5.12
2018-11-21T03:35:54.615Z,5.11
2018-11-21T03:38:23.050Z,5.10
2018-11-21T03:40:51.798Z,5.10
2018-11-21T03:43:20.216Z,5.11
2018-11-21T03:45:48.597Z,5.10
2018-11-21T03:48:17.020Z,5.09
2018-11-21T03:50:45.536Z,5.08
2018-11-21T03:53:14.052Z,5.10
2018-11-21T03:55:42.434Z,5.10
2018-11-21T03:58:13.825Z,5.11
2018-11-21T04:00:42.236Z,5.12
2018-11-21T04:03:22.879Z,5.14
2018-11-21T04:05:51.730Z,5.15
2018-11-21T04:08:42.649Z,5.14
2018-11-21T04:11:07.923Z,5.14
2018-11-21T04:13:36.322Z,5.13
2018-11-21T04:16:05.062Z,5.12
2018-11-21T04:18:36.442Z,5.13
2018-11-21T04:21:05.237Z,5.11
2018-11-21T04:23:36.766Z,5.10
2018-11-21T04:26:20.483Z,5.12
2018-11-21T04:28:58.086Z,5.13
2018-11-21T04:31:26.495Z,5.12
2018-11-21T04:33:55.114Z,5.12
2018-11-21T04:36:23.518Z,5.13
2018-11-21T04:38:51.955Z,5.11
2018-11-21T04:41:20.644Z,5.11
2018-11-21T04:43:49.071Z,5.12
2018-11-21T04:46:17.511Z,5.13
2018-11-21T04:48:45.989Z,5.15
2018-11-21T04:51:14.373Z,5.16
2018-11-21T04:53:42.807Z,5.14
2018-11-21T04:56:11.205Z,5.15
2018-11-21T04:58:39.750Z,5.13
2018-11-21T05:01:14.114Z,5.09
2018-11-21T05:03:42.511Z,5.07
2018-11-21T05:06:10.891Z,5.07
2018-11-21T05:08:39.295Z,5.09
2018-11-21T05:11:13.990Z,5.09
2018-11-21T05:13:42.421Z,5.10
2018-11-21T05:16:10.909Z,5.09
2018-11-21T05:18:48.355Z,5.08
2018-11-21T05:21:16.757Z,5.08
2018-11-21T05:23:45.371Z,5.07
2018-11-21T05:26:13.763Z,5.09
2018-11-21T05:28:42.370Z,5.10
2018-11-21T05:31:10.759Z,5.09
2018-11-21T05:33:43.373Z,5.13
2018-11-21T05:36:11.754Z,5.11
2018-11-21T05:38:40.176Z,5.11
2018-11-21T05:41:14.248Z,5.13
2018-11-21T05:43:48.474Z,5.11
2018-11-21T05:46:24.271Z,5.13
2018-11-21T05:48:52.761Z,5.10
2018-11-21T05:51:40.516Z,5.04
2018-11-21T05:54:09.086Z,5.02
2018-11-21T05:56:37.536Z,4.97
2018-11-21T05:59:12.325Z,4.98
2018-11-21T06:01:47.145Z,4.98
2018-11-21T06:04:21.833Z,4.94
2018-11-21T06:06:50.270Z,4.93
2018-11-21T06:09:18.673Z,4.91
2018-11-21T06:11:47.105Z,4.86
2018-11-21T06:14:15.562Z,4.80
2018-11-21T06:16:50.218Z,4.75
2018-11-21T06:19:18.627Z,4.72
2018-11-21T06:21:56.615Z,4.71
2018-11-21T06:24:25.054Z,4.69
2018-11-21T06:27:00.664Z,4.66
2018-11-21T06:29:29.239Z,4.62
2018-11-21T06:31:57.919Z,4.61
2018-11-21T06:34:29.147Z,4.58
2018-11-21T06:37:00.830Z,4.53
2018-11-21T06:39:29.272Z,4.51
2018-11-21T06:41:57.743Z,4.48
2018-11-21T06:44:32.341Z,4.45
2018-11-21T06:47:01.039Z,4.42
2018-11-21T06:49:29.590Z,4.39
2018-11-21T06:51:58.378Z,4.34
2018-11-21T06:54:26.785Z,4.32
2018-11-21T06:57:03.940Z,4.29
2018-11-21T06:59:32.520Z,4.24
2018-11-21T07:02:01.218Z,4.18
2018-11-21T07:04:29.688Z,4.17
2018-11-21T07:07:04.023Z,4.16
2018-11-21T07:09:32.435Z,4.14
2018-11-21T07:12:09.807Z,4.16
2018-11-21T07:14:38.240Z,4.17
2018-11-21T07:17:12.339Z,4.17
2018-11-21T07:19:40.757Z,4.18
2018-11-21T07:22:09.224Z,4.19
2018-11-21T07:24:37.733Z,4.17
2018-11-21T07:27:06.251Z,4.17
2018-11-21T07:29:34.901Z,4.15
2018-11-21T07:32:03.705Z,4.15
2018-11-21T07:34:32.117Z,4.12
2018-11-21T07:37:00.722Z,4.13
2018-11-21T07:39:29.180Z,4.09
2018-11-21T07:41:57.605Z,4.08
2018-11-21T07:44:26.025Z,4.04
2018-11-21T07:46:54.449Z,4.01
2018-11-21T07:49:23.019Z,3.99
2018-11-21T07:51:57.680Z,4.01
2018-11-21T07:54:26.096Z,4.01
2018-11-21T07:57:34.075Z,3.99
2018-11-21T08:00:47.590Z,3.96
2018-11-21T08:03:16.282Z,3.95
2018-11-21T08:05:47.454Z,3.95
2018-11-21T08:08:56.437Z,3.95
2018-11-21T08:11:42.902Z,3.98
2018-11-21T08:14:28.891Z,4.00
2018-11-21T08:17:15.164Z,4.02
2018-11-21T08:20:11.571Z,4.03
2018-11-21T08:23:04.971Z,4.06
2018-11-21T08:26:10.581Z,4.10
2018-11-21T08:28:39.016Z,4.10
2018-11-21T08:31:07.464Z,4.11
2018-11-21T08:33:35.925Z,4.09
2018-11-21T08:36:04.650Z,4.11
2018-11-21T08:38:33.255Z,4.13
2018-11-21T08:41:01.916Z,4.17
2018-11-21T08:43:30.338Z,4.20
2018-11-21T08:46:11.063Z,4.24
2018-11-21T08:48:39.493Z,4.25
2018-11-21T08:51:08.212Z,4.29
2018-11-21T08:53:36.850Z,4.33
2018-11-21T08:56:14.417Z,4.37
2018-11-21T08:58:43.307Z,4.39
2018-11-21T09:01:11.617Z,4.41
2018-11-21T09:03:43.281Z,4.44
2018-11-21T09:06:11.856Z,4.46
2018-11-21T09:08:40.293Z,4.49
2018-11-21T09:11:09.245Z,4.51
2018-11-21T09:13:37.782Z,4.57
2018-11-21T09:16:06.295Z,4.62
2018-11-21T09:18:41.024Z,4.67
2018-11-21T09:21:09.917Z,4.73
2018-11-21T09:23:38.317Z,4.77
2018-11-21T09:26:07.104Z,4.88
2018-11-21T09:28:35.499Z,4.91
2018-11-21T09:31:33.825Z,4.94
2018-11-21T09:33:56.617Z,5.00
2018-11-21T09:39:14.689Z,5.14
2018-11-21T09:41:43.102Z,5.26
2018-11-21T09:44:23.885Z,5.34
2018-11-21T09:46:52.322Z,5.42
2018-11-21T09:49:20.769Z,5.46
2018-11-21T09:51:49.173Z,5.54
2018-11-21T09:54:17.933Z,5.66
2018-11-21T09:56:46.766Z,5.81
2018-11-21T09:59:15.210Z,5.93
2018-11-21T10:02:20.544Z,6.04
2018-11-21T10:04:49.117Z,6.18
2018-11-21T10:07:17.586Z,6.36
2018-11-21T10:09:47.935Z,6.45
2018-11-21T10:12:16.433Z,6.53
2018-11-21T10:14:47.759Z,6.63
2018-11-21T10:17:16.219Z,6.70
2018-11-21T10:19:44.683Z,6.78
2018-11-21T10:22:13.232Z,6.87
2018-11-21T10:24:44.688Z,6.86
2018-11-21T10:27:13.281Z,6.91
2018-11-21T10:29:41.657Z,7.03
2018-11-21T10:34:58.542Z,7.28
2018-11-21T10:37:27.023Z,7.38
2018-11-21T10:39:55.587Z,7.41
2018-11-21T10:42:24.012Z,7.36
2018-11-21T10:44:58.430Z,7.30
2018-11-21T10:47:26.846Z,7.15
2018-11-21T10:49:58.375Z,7.10
2018-11-21T10:52:31.635Z,7.12
2018-11-21T10:54:58.069Z,7.17
2018-11-21T10:57:38.422Z,7.25
2018-11-21T11:00:14.226Z,7.27
2018-11-21T11:02:58.012Z,7.27
2018-11-21T11:05:40.414Z,7.28
2018-11-21T11:08:39.791Z,7.26
2018-11-21T11:11:26.067Z,7.19
2018-11-21T11:14:16.568Z,7.14
2018-11-21T11:17:18.145Z,7.08
2018-11-21T11:20:08.613Z,7.11
2018-11-21T11:22:59.089Z,7.06
2018-11-21T11:26:10.826Z,7.02
2018-11-21T11:29:07.497Z,7.03
2018-11-21T11:31:57.954Z,7.04
2018-11-21T11:34:48.043Z,7.05
2018-11-21T11:37:34.430Z,7.05
2018-11-21T11:40:30.873Z,7.02
2018-11-21T11:43:15.763Z,7.00
2018-11-21T11:46:01.633Z,7.02
2018-11-21T11:48:47.277Z,7.08
2018-11-21T11:51:39.251Z,7.16
2018-11-21T11:54:25.286Z,7.20
2018-11-21T11:57:31.040Z,7.25
2018-11-21T12:00:29.836Z,7.26
2018-11-21T12:03:15.918Z,7.33
2018-11-21T12:06:02.450Z,7.31
2018-11-21T12:08:40.755Z,7.24
2018-11-21T12:11:31.098Z,7.16
2018-11-21T12:14:34.010Z,7.15
2018-11-21T12:17:27.593Z,7.13
2018-11-21T12:20:21.005Z,7.12
2018-11-21T12:23:14.471Z,7.13
2018-11-21T12:26:10.631Z,7.12
2018-11-21T12:29:07.078Z,7.14
2018-11-21T12:31:53.237Z,7.17
2018-11-21T12:34:40.739Z,7.32
2018-11-21T12:37:26.784Z,7.43
2018-11-21T12:40:04.511Z,7.43
2018-11-21T12:42:57.937Z,7.41
2018-11-21T12:45:54.069Z,7.33
2018-11-21T12:48:40.664Z,7.24
2018-11-21T12:51:31.119Z,7.19
2018-11-21T12:54:24.295Z,7.19
2018-11-21T12:57:23.559Z,7.18
2018-11-21T13:00:11.213Z,7.13
2018-11-21T13:03:01.373Z,7.05
2018-11-21T13:05:40.386Z,6.98
2018-11-21T13:08:43.006Z,6.95
2018-11-21T13:11:29.621Z,6.91
2018-11-21T13:14:32.450Z,6.91
2018-11-21T13:17:38.248Z,6.90
2018-11-21T13:20:26.534Z,6.92
2018-11-21T13:23:11.814Z,6.94
2018-11-21T13:26:01.731Z,6.95
2018-11-21T13:28:58.470Z,6.96
2018-11-21T13:31:50.744Z,6.97
2018-11-21T13:34:37.204Z,7.02
2018-11-21T13:37:31.109Z,7.00
2018-11-21T13:40:27.476Z,6.97
2018-11-21T13:43:17.913Z,6.95
2018-11-21T13:46:17.463Z,6.98
2018-11-21T13:49:25.970Z,6.98
2018-11-21T13:52:11.966Z,6.93
2018-11-21T13:55:00.201Z,6.94
2018-11-21T13:57:34.959Z,6.91
2018-11-21T14:00:03.999Z,6.88
2018-11-21T14:02:32.579Z,6.87
2018-11-21T14:05:07.212Z,6.82
2018-11-21T14:07:35.620Z,6.80
2018-11-21T14:10:05.600Z,6.80
2018-11-21T14:12:34.239Z,6.81
2018-11-21T14:15:08.801Z,6.80
2018-11-21T14:17:37.122Z,6.78
2018-11-21T14:20:10.905Z,6.78
2018-11-21T14:22:48.170Z,6.76
2018-11-21T14:25:16.663Z,6.78
2018-11-21T14:27:45.862Z,6.78
2018-11-21T14:30:36.540Z,6.77
2018-11-21T14:33:07.693Z,6.65
2018-11-21T14:35:36.146Z,6.63
2018-11-21T14:38:04.605Z,6.66
2018-11-21T14:40:33.060Z,6.64
2018-11-21T14:43:01.451Z,6.66
2018-11-21T14:45:29.994Z,6.68
2018-11-21T14:48:04.585Z,6.67
2018-11-21T14:50:39.177Z,6.67
2018-11-21T14:53:09.363Z,6.63
2018-11-21T14:55:43.465Z,6.58
2018-11-21T14:58:11.966Z,6.49
2018-11-21T15:00:40.427Z,6.50
2018-11-21T15:03:18.393Z,6.51
2018-11-21T15:05:42.994Z,6.53
2018-11-21T15:08:14.354Z,6.53
2018-11-21T15:10:42.765Z,6.52
2018-11-21T15:13:17.495Z,6.51
2018-11-21T15:15:45.916Z,6.46
2018-11-21T15:18:14.834Z,6.42
2018-11-21T15:20:46.136Z,6.35
2018-11-21T15:23:17.696Z,6.32
2018-11-21T15:25:46.253Z,6.29
2018-11-21T15:28:14.673Z,6.29
2018-11-21T15:30:49.022Z,6.28
2018-11-21T15:33:23.539Z,6.28
2018-11-21T15:35:52.023Z,6.28
2018-11-21T15:38:20.453Z,6.29
2018-11-21T15:40:48.950Z,6.27
2018-11-21T15:43:17.385Z,6.26
2018-11-21T15:45:52.072Z,6.20
2018-11-21T15:48:26.851Z,6.16
2018-11-21T15:51:01.508Z,6.06
2018-11-21T15:53:29.995Z,6.03
2018-11-21T15:56:04.211Z,6.02
2018-11-21T15:58:32.993Z,6.03
2018-11-21T16:01:01.549Z,6.04
2018-11-21T16:03:29.947Z,6.04
2018-11-21T16:06:04.281Z,6.04
2018-11-21T16:08:32.682Z,6.00
2018-11-21T16:11:01.420Z,5.94
2018-11-21T16:13:29.951Z,5.90
2018-11-21T16:16:01.231Z,5.90
2018-11-21T16:18:29.788Z,5.91
2018-11-21T16:21:03.948Z,5.91
2018-11-21T16:23:32.381Z,5.91
2018-11-21T16:26:00.908Z,5.90
2018-11-21T16:28:29.481Z,5.85
2018-11-21T16:30:58.097Z,5.83
2018-11-21T16:33:26.894Z,5.82
2018-11-21T16:36:04.059Z,5.82
2018-11-21T16:38:34.926Z,5.79
2018-11-21T16:41:04.935Z,5.75
2018-11-21T16:43:36.422Z,5.74
2018-11-21T16:46:04.901Z,5.72
2018-11-21T16:48:33.422Z,5.71
2018-11-21T16:51:07.839Z,5.69
2018-11-21T16:53:40.574Z,5.69
2018-11-21T16:56:12.560Z,5.66
2018-11-21T16:58:40.970Z,5.64
2018-11-21T17:01:09.394Z,5.60
2018-11-21T17:03:43.739Z,5.58
2018-11-21T17:06:12.386Z,5.57
2018-11-21T17:08:43.431Z,5.56
2018-11-21T17:11:18.087Z,5.52
2018-11-21T17:13:46.610Z,5.45
2018-11-21T17:16:15.128Z,5.43
2018-11-21T17:18:43.616Z,5.41
2018-11-21T17:21:12.106Z,5.39
2018-11-21T17:23:40.597Z,5.38
2018-11-21T17:26:09.341Z,5.33
2018-11-21T17:28:37.792Z,5.30
2018-11-21T17:31:09.003Z,5.27
2018-11-21T17:33:37.553Z,5.23
2018-11-21T17:36:12.190Z,5.20
2018-11-21T17:38:40.619Z,5.19
2018-11-21T17:41:09.091Z,5.18
2018-11-21T17:43:37.489Z,5.18
2018-11-21T17:46:12.178Z,5.16
2018-11-21T17:48:46.794Z,5.15
2018-11-21T17:51:15.494Z,5.15
2018-11-21T17:53:44.114Z,5.13
2018-11-21T17:56:15.606Z,5.12
2018-11-21T17:58:44.111Z,5.09
2018-11-21T18:01:12.780Z,5.06
2018-11-21T18:03:41.315Z,5.02
2018-11-21T18:06:09.758Z,5.00
2018-11-21T18:08:38.226Z,4.97
2018-11-21T18:11:12.530Z,4.93
2018-11-21T18:13:41.035Z,4.90
2018-11-21T18:16:09.849Z,4.89
2018-11-21T18:18:38.328Z,4.87
2018-11-21T18:21:06.737Z,4.83
2018-11-21T18:23:35.395Z,4.80
2018-11-21T18:26:03.834Z,4.80
2018-11-21T18:28:32.412Z,4.81
2018-11-21T18:31:00.833Z,4.82
2018-11-21T18:33:29.604Z,4.83
2018-11-21T18:36:10.225Z,4.80
2018-11-21T18:38:38.850Z,4.79
2018-11-21T18:41:07.484Z,4.81
2018-11-21T18:43:42.171Z,4.86
2018-11-21T18:46:10.605Z,4.90
2018-11-21T18:48:56.836Z,4.93
2018-11-21T18:51:25.407Z,4.91
2018-11-21T18:53:54.944Z,4.93
2018-11-21T18:57:03.070Z,4.94
2018-11-21T18:59:48.728Z,4.99
2018-11-21T19:02:26.521Z,4.98
2018-11-21T19:04:55.062Z,4.99
2018-11-21T19:07:23.491Z,5.02
2018-11-21T19:09:54.501Z,5.04
2018-11-21T19:12:26.664Z,5.05
2018-11-21T19:14:55.293Z,5.06
2018-11-21T19:17:29.744Z,5.05
2018-11-21T19:19:58.277Z,5.05
2018-11-21T19:22:26.779Z,5.06
2018-11-21T19:24:56.535Z,5.07
2018-11-21T19:27:26.696Z,5.05
2018-11-21T19:29:55.344Z,5.03
2018-11-21T19:32:24.067Z,5.04
2018-11-21T19:34:52.547Z,5.05
2018-11-21T19:37:21.062Z,5.07
2018-11-21T19:39:49.555Z,5.08
2018-11-21T19:42:26.817Z,5.06
2018-11-21T19:45:01.400Z,5.06
2018-11-21T19:47:29.918Z,5.07
2018-11-21T19:49:58.592Z,5.07
2018-11-21T19:52:27.080Z,5.05
2018-11-21T19:54:55.552Z,5.05
2018-11-21T19:57:30.040Z,5.04
2018-11-21T19:59:58.553Z,5.01
2018-11-21T20:02:27.196Z,5.03
2018-11-21T20:05:15.273Z,5.04
2018-11-21T20:07:50.140Z,5.05
2018-11-21T20:10:24.910Z,5.05
2018-11-21T20:12:53.596Z,5.02
2018-11-21T20:15:23.570Z,5.05
2018-11-21T20:17:53.949Z,5.03
2018-11-21T20:20:22.991Z,5.06
2018-11-21T20:22:53.969Z,5.08
2018-11-21T20:25:23.529Z,5.09
2018-11-21T20:28:09.389Z,5.10
2018-11-21T20:33:29.434Z,5.07
2018-11-21T20:36:00.106Z,5.06
2018-11-21T20:38:26.632Z,5.05
2018-11-21T20:40:55.470Z,5.02
2018-11-21T20:43:23.869Z,5.03
2018-11-21T20:45:52.360Z,5.03
2018-11-21T20:48:23.358Z,5.04
2018-11-21T20:50:52.036Z,5.07
2018-11-21T20:53:23.623Z,5.07
2018-11-21T20:55:52.105Z,5.10
2018-11-21T20:58:20.654Z,5.12
2018-11-21T21:00:49.130Z,5.13
2018-11-21T21:03:17.630Z,5.15
2018-11-21T21:05:46.145Z,5.14
2018-11-21T21:08:14.691Z,5.17
2018-11-21T21:10:47.211Z,5.15
2018-11-21T21:13:15.793Z,5.14
2018-11-21T21:15:44.545Z,5.16
2018-11-21T21:18:35.119Z,5.19
2018-11-21T21:21:03.656Z,5.20
2018-11-21T21:23:32.492Z,5.18
2018-11-21T21:26:02.136Z,5.17
2018-11-21T21:28:37.844Z,5.19
2018-11-21T21:31:06.380Z,5.19
2018-11-21T21:33:35.015Z,5.20
2018-11-21T21:36:03.548Z,5.19
2018-11-21T21:38:32.049Z,5.19
2018-11-21T21:41:00.462Z,5.22
2018-11-21T21:43:29.009Z,5.23
2018-11-21T21:45:57.466Z,5.25
2018-11-21T21:48:31.777Z,5.27
2018-11-21T21:51:00.203Z,5.27
2018-11-21T21:53:33.101Z,5.27
2018-11-21T21:56:02.356Z,5.28
2018-11-21T21:58:31.789Z,5.26
2018-11-21T22:01:01.449Z,5.27
2018-11-21T22:03:30.345Z,5.27
2018-11-21T22:05:59.977Z,5.26
2018-11-21T22:08:29.042Z,5.25
2018-11-21T22:10:58.282Z,5.23
2018-11-21T22:13:27.206Z,5.23
2018-11-21T22:15:55.666Z,5.25
2018-11-21T22:18:30.373Z,5.25
2018-11-21T22:20:58.809Z,5.23
2018-11-21T22:23:27.243Z,5.23
2018-11-21T22:26:04.965Z,5.25
2018-11-21T22:28:45.598Z,5.27
2018-11-21T22:31:14.095Z,5.25
2018-11-21T22:33:48.252Z,5.27
2018-11-21T22:36:16.707Z,5.29
2018-11-21T22:38:45.265Z,5.30
2018-11-21T22:41:35.940Z,5.28
2018-11-21T22:44:04.436Z,5.32
2018-11-21T22:46:32.822Z,5.34
2018-11-21T22:49:01.458Z,5.35
2018-11-21T22:51:30.220Z,5.35
2018-11-21T22:53:58.663Z,5.35
2018-11-21T22:56:27.148Z,5.35
2018-11-21T22:58:55.518Z,5.38
2018-11-21T23:04:20.381Z,5.40
2018-11-21T23:06:48.902Z,5.42
2018-11-21T23:09:17.441Z,5.42
2018-11-21T23:11:46.447Z,5.44
2018-11-21T23:14:15.010Z,5.46
2018-11-21T23:16:43.839Z,5.47
2018-11-21T23:19:12.247Z,5.47
2018-11-21T23:21:40.755Z,5.49
2018-11-21T23:24:09.189Z,5.50
2018-11-21T23:26:37.685Z,5.53
2018-11-21T23:29:11.959Z,5.55
2018-11-21T23:31:40.365Z,5.53
2018-11-21T23:34:08.899Z,5.54
2018-11-21T23:36:37.328Z,5.55
2018-11-21T23:39:07.826Z,5.58
2018-11-21T23:41:39.327Z,5.57
2018-11-21T23:44:07.720Z,5.55
2018-11-21T23:46:36.186Z,5.56
2018-11-21T23:49:04.730Z,5.59
2018-11-21T23:51:38.843Z,5.61
2018-11-21T23:54:15.498Z,5.61
2018-11-21T23:56:43.879Z,5.60
2018-11-21T23:59:12.515Z,5.62
